AirNav   Phillips 66 Aviation Fuel
 
 649 users online  

CYQG Windsor Airport
Windsor, Ontario, Canada

GOING TO WINDSOR?


FAA INFORMATION EFFECTIVE 21 JUNE 2018

The information below comes from the U.S. Federal Avaition Administration (FAA). The FAA is not the official source of data for facilities located outside the United States, and THESE RECORDS ARE LIKELY NOT COMPLETE OR CORRECT.

Location

FAA Identifier: CYQG
Lat/Long: 42-16-33.1111N / 082-57-27.5347W
42-16.551852N / 082-57.458912W
42.2758642 / -82.9576485
(estimated)
Elevation: 622 ft. / 190 m (estimated)
Variation: 07W ()
Time zone: UTC -4 (UTC -5 during Standard Time)
Zip code: 48243

Airport Operations

Airport use: Open to the public
Activation date: 03/2005
Control tower: no
ARTCC: CLEVELAND CENTER
FSS: LONDON FIC FLIGHT SERVICE STATION
Attendance: 
Segmented circle: no

Airport Communications

WX ASOS at DET (8 nm N): PHONE 313-371-9696
WX AWOS-3 at ONZ (14 nm SW): 119.675 (734-692-9686)
WX ASOS at DTW (18 nm W): PHONE 734-955-5015
WX AWOS-3 at VLL (19 nm NW): 119.475 (248-288-4649)

Nearby radio navigation aids

VOR radial/distance  VOR name  Freq  Var
YQGr291/5.9WINDSOR VOR/DME113.8006W
DXOr084/18.6DETROIT VOR/DME113.4006W
CRLr061/26.1CARLETON VOR/DME115.7003W
SVMr109/29.3SALEM VORTAC114.3003W
PSIr138/36.0PONTIAC VORTAC111.0003W

 
NDB name  Hdg/Dist  Freq  Var  ID
CARGL187/4.823005WVQ ...- --.-
GROSSE ILE047/13.641907WRYS .-. -.-- ...
MADDS160/14.433805WDE -.. .

Airport Services

Runway Information

Runway 7/25

Dimensions: 9000 x 200 ft. / 2743 x 61 m
Surface: asphalt
RUNWAY 7  RUNWAY 25
Latitude: 42-16.404018N42-17.086803N
Longitude: 082-58.209487W082-56.438652W
Elevation: 622.0 ft.608.0 ft.
Traffic pattern: leftleft
Runway heading: 070 magnetic, 063 true250 magnetic, 243 true
Displaced threshold: 901 ft.1143 ft.
Touchdown point: yes, no lightsyes, no lights

Runway 12/30

Dimensions: 5150 x 150 ft. / 1570 x 46 m
Surface: asphalt
RUNWAY 12  RUNWAY 30
Latitude: 42-16.396830N42-16.030400N
Longitude: 082-58.209295W082-57.179820W
Elevation: 622.0 ft.619.0 ft.
Traffic pattern: leftleft
Runway heading: 123 magnetic, 116 true303 magnetic, 296 true
Displaced threshold: 570 ft.321 ft.
Touchdown point: yes, no lightsyes, no lights

Airport Ownership and Management from official FAA records

Ownership: Publicly-owned

Instrument Procedures

There are no published instrument procedures at CYQG.

Some nearby airports with instrument procedures:

KDET - Coleman A Young Municipal Airport (8 nm N)
KONZ - Grosse Ile Municipal Airport (14 nm SW)
KDTW - Detroit Metropolitan Wayne County Airport (18 nm W)
KVLL - Oakland/Troy Airport (19 nm NW)
KMTC - Selfridge Air National Guard Base (21 nm N)
 
Loc | Ops | Rwys | IFR | FBO | Links
Com | Nav | Svcs | Stats | Notes


 
Aerial photo
No photo
 
Airport distance calculator
Flying to Windsor Airport? Find the distance to fly.

From to CYQG

Sunrise and sunset
Times for 18-Jul-2018
 Local
(UTC-4)
 Zulu
(UTC)
Morning civil twilight05:3909:39
Sunrise06:1210:12
Sunset21:0401:04
Evening civil twilight21:3701:37

Current date and time
Zulu (UTC)  18-Jul-2018 10:54:04
Local (UTC-4)  18-Jul-2018 06:54:04
 
METAR
CYQG 181000Z 35005KT 15SM FEW040 FEW120 16/14 A3009 RMK CU1AC1 AC TR SLP187 DENSITY ALT 800FT
KDET 
8nm N 
180953Z 35003KT 10SM CLR 17/13 A3010 RMK AO2 SLP188 T01670128
KONZ 
14nm SW 
181035Z AUTO 36005KT 10SM CLR 17/14 A3009 RMK AO2 T01650142
CXHA 
15nm S 
181000Z AUTO 36003KT 15/14 RMK AO1 SLP176 T01450137 53004
KDTW 
17nm W 
180953Z 36005KT 10SM FEW180 16/13 A3010 RMK AO2 SLP188 T01610128
KVLL 
19nm NW 
181035Z AUTO 00000KT 10SM CLR 17/13 A3013 RMK AO2 T01660128
TAF
CYQG 180538Z 1806/1906 06005KT P6SM SKC BECMG 1806/1808 VRB03KT FM180900 VRB03KT P6SM SKC PROB30 1809/1811 2SM BR FM181700 08008KT P6SM FEW050 BECMG 1822/1824 VRB03KT RMK NXT FCST BY 181200Z
KDET 
8nm N 
180520Z 1806/1906 01005KT P6SM SKC FM181500 34005KT P6SM SCT060 FM190000 VRB03KT P6SM SKC
KDTW 
17nm W 
180850Z 1808/1912 01005KT P6SM SKC FM181500 34005KT P6SM SCT060 FM190000 VRB03KT P6SM SKC
NOTAMs
Click for the latest NOTAMs
NOTAMs are issued by the DoD/FAA and will open in a separate window not controlled by AirNav.

 

 
 

Would you like to see your business listed on this page?

 If your business provides an interesting product or service to pilots, flight crews, aircraft, or users of the Windsor Airport, you should consider listing it here.  To start the listing process, click on the button below
 
Add a business
 

Other Pages about Windsor Airport

Update a link
 
Copyright © AirNav, LLC. All rights reserved. Privacy Policy  Contact